sensor_id;sensor_type;location;lat;lon;timestamp;temperature;humidity
61016;DHT22;46902;52.920;6.536;2023-05-10T00:01:38;13.60;99.90
61016;DHT22;46902;52.920;6.536;2023-05-10T00:04:03;13.70;99.90
61016;DHT22;46902;52.920;6.536;2023-05-10T00:06:29;13.70;99.90
61016;DHT22;46902;52.920;6.536;2023-05-10T00:08:55;13.70;99.90
61016;DHT22;46902;52.920;6.536;2023-05-10T00:11:21;13.60;99.90
61016;DHT22;46902;52.920;6.536;2023-05-10T00:13:47;13.60;99.90
61016;DHT22;46902;52.920;6.536;2023-05-10T00:16:13;13.70;99.90
61016;DHT22;46902;52.920;6.536;2023-05-10T00:18:39;13.60;99.90
61016;DHT22;46902;52.920;6.536;2023-05-10T00:21:05;13.60;99.90
61016;DHT22;46902;52.920;6.536;2023-05-10T00:23:31;13.60;99.90
61016;DHT22;46902;52.920;6.536;2023-05-10T00:25:57;13.60;99.90
61016;DHT22;46902;52.920;6.536;2023-05-10T00:28:22;13.60;99.90
61016;DHT22;46902;52.920;6.536;2023-05-10T00:30:48;13.60;99.90
61016;DHT22;46902;52.920;6.536;2023-05-10T00:33:14;13.60;99.90
61016;DHT22;46902;52.920;6.536;2023-05-10T00:35:39;13.50;99.90
61016;DHT22;46902;52.920;6.536;2023-05-10T00:38:05;13.50;99.90
61016;DHT22;46902;52.920;6.536;2023-05-10T00:40:31;13.50;99.90
61016;DHT22;46902;52.920;6.536;2023-05-10T00:42:57;13.50;99.90
61016;DHT22;46902;52.920;6.536;2023-05-10T00:45:24;13.50;99.90
61016;DHT22;46902;52.920;6.536;2023-05-10T00:47:50;13.50;99.90
61016;DHT22;46902;52.920;6.536;2023-05-10T00:50:17;13.50;99.90
61016;DHT22;46902;52.920;6.536;2023-05-10T00:52:43;13.50;99.90
61016;DHT22;46902;52.920;6.536;2023-05-10T00:55:09;13.50;99.90
61016;DHT22;46902;52.920;6.536;2023-05-10T00:57:36;13.40;99.90
61016;DHT22;46902;52.920;6.536;2023-05-10T01:00:02;13.50;99.90
61016;DHT22;46902;52.920;6.536;2023-05-10T01:02:28;13.40;99.90
61016;DHT22;46902;52.920;6.536;2023-05-10T01:04:54;13.40;99.90
61016;DHT22;46902;52.920;6.536;2023-05-10T01:07:20;13.50;99.90
61016;DHT22;46902;52.920;6.536;2023-05-10T01:09:46;13.40;99.90
61016;DHT22;46902;52.920;6.536;2023-05-10T01:12:11;13.40;99.90
61016;DHT22;46902;52.920;6.536;2023-05-10T01:14:37;13.40;99.90
61016;DHT22;46902;52.920;6.536;2023-05-10T01:17:05;13.40;99.90
61016;DHT22;46902;52.920;6.536;2023-05-10T01:19:32;13.40;99.90
61016;DHT22;46902;52.920;6.536;2023-05-10T01:23:00;13.30;99.90
61016;DHT22;46902;52.920;6.536;2023-05-10T01:39:10;13.40;99.90
61016;DHT22;46902;52.920;6.536;2023-05-10T01:41:48;13.40;99.90
61016;DHT22;46902;52.920;6.536;2023-05-10T01:49:54;13.30;99.90
61016;DHT22;46902;52.920;6.536;2023-05-10T01:52:30;13.30;99.90
61016;DHT22;46902;52.920;6.536;2023-05-10T01:55:02;13.30;99.90
61016;DHT22;46902;52.920;6.536;2023-05-10T01:57:33;13.30;99.90
61016;DHT22;46902;52.920;6.536;2023-05-10T01:59:59;13.30;99.90
61016;DHT22;46902;52.920;6.536;2023-05-10T02:02:27;13.40;99.90
61016;DHT22;46902;52.920;6.536;2023-05-10T02:04:54;13.40;99.90
61016;DHT22;46902;52.920;6.536;2023-05-10T02:07:22;13.30;99.90
61016;DHT22;46902;52.920;6.536;2023-05-10T02:09:49;13.30;99.90
61016;DHT22;46902;52.920;6.536;2023-05-10T02:12:17;13.40;99.90
61016;DHT22;46902;52.920;6.536;2023-05-10T02:14:44;13.30;99.90
61016;DHT22;46902;52.920;6.536;2023-05-10T02:17:11;13.30;99.90
61016;DHT22;46902;52.920;6.536;2023-05-10T02:19:40;13.40;99.90
61016;DHT22;46902;52.920;6.536;2023-05-10T02:22:06;13.40;99.90
61016;DHT22;46902;52.920;6.536;2023-05-10T02:24:34;13.20;99.90
61016;DHT22;46902;52.920;6.536;2023-05-10T02:27:02;13.30;99.90
61016;DHT22;46902;52.920;6.536;2023-05-10T02:29:29;13.40;99.90
61016;DHT22;46902;52.920;6.536;2023-05-10T02:31:57;13.40;99.90
61016;DHT22;46902;52.920;6.536;2023-05-10T02:34:25;13.30;99.90
61016;DHT22;46902;52.920;6.536;2023-05-10T02:36:52;13.40;99.90
61016;DHT22;46902;52.920;6.536;2023-05-10T02:39:19;13.40;99.90
61016;DHT22;46902;52.920;6.536;2023-05-10T02:41:46;13.30;99.90
61016;DHT22;46902;52.920;6.536;2023-05-10T02:44:15;13.30;99.90
61016;DHT22;46902;52.920;6.536;2023-05-10T02:46:43;13.30;99.90
61016;DHT22;46902;52.920;6.536;2023-05-10T02:49:09;13.30;99.90
61016;DHT22;46902;52.920;6.536;2023-05-10T02:51:36;13.40;99.90
61016;DHT22;46902;52.920;6.536;2023-05-10T02:54:09;13.30;99.90
61016;DHT22;46902;52.920;6.536;2023-05-10T02:56:36;13.30;99.90
61016;DHT22;46902;52.920;6.536;2023-05-10T02:59:04;13.30;99.90
61016;DHT22;46902;52.920;6.536;2023-05-10T03:01:30;13.30;99.90
61016;DHT22;46902;52.920;6.536;2023-05-10T03:03:56;13.30;99.90
61016;DHT22;46902;52.920;6.536;2023-05-10T03:06:21;13.30;99.90
61016;DHT22;46902;52.920;6.536;2023-05-10T03:08:47;13.20;99.90
61016;DHT22;46902;52.920;6.536;2023-05-10T03:14:10;13.20;99.90
61016;DHT22;46902;52.920;6.536;2023-05-10T03:16:50;13.20;99.90
61016;DHT22;46902;52.920;6.536;2023-05-10T03:19:36;13.20;99.90
61016;DHT22;46902;52.920;6.536;2023-05-10T03:22:10;13.20;99.90
61016;DHT22;46902;52.920;6.536;2023-05-10T03:24:36;13.10;99.90
61016;DHT22;46902;52.920;6.536;2023-05-10T03:27:04;13.20;99.90
61016;DHT22;46902;52.920;6.536;2023-05-10T03:29:30;13.20;99.90
61016;DHT22;46902;52.920;6.536;2023-05-10T03:31:58;13.20;99.90
61016;DHT22;46902;52.920;6.536;2023-05-10T03:34:25;13.10;99.90
61016;DHT22;46902;52.920;6.536;2023-05-10T03:36:51;13.20;99.90
61016;DHT22;46902;52.920;6.536;2023-05-10T03:39:16;13.20;99.90
61016;DHT22;46902;52.920;6.536;2023-05-10T03:41:42;13.20;99.90
61016;DHT22;46902;52.920;6.536;2023-05-10T03:44:07;13.20;99.90
61016;DHT22;46902;52.920;6.536;2023-05-10T03:46:33;13.00;99.90
61016;DHT22;46902;52.920;6.536;2023-05-10T03:48:59;13.00;99.90
61016;DHT22;46902;52.920;6.536;2023-05-10T03:51:24;13.10;99.90
61016;DHT22;46902;52.920;6.536;2023-05-10T03:53:56;13.10;99.90
61016;DHT22;46902;52.920;6.536;2023-05-10T03:56:22;13.00;99.90
61016;DHT22;46902;52.920;6.536;2023-05-10T03:58:47;13.10;99.90
61016;DHT22;46902;52.920;6.536;2023-05-10T04:01:13;13.10;99.90
61016;DHT22;46902;52.920;6.536;2023-05-10T04:03:38;13.00;99.90
61016;DHT22;46902;52.920;6.536;2023-05-10T04:06:04;13.00;99.90
61016;DHT22;46902;52.920;6.536;2023-05-10T04:08:31;13.00;99.90
61016;DHT22;46902;52.920;6.536;2023-05-10T04:11:07;13.00;99.90
61016;DHT22;46902;52.920;6.536;2023-05-10T04:13:33;13.00;99.90
61016;DHT22;46902;52.920;6.536;2023-05-10T04:15:59;12.90;99.90
61016;DHT22;46902;52.920;6.536;2023-05-10T04:18:24;12.90;99.90
61016;DHT22;46902;52.920;6.536;2023-05-10T04:20:50;13.00;99.90
61016;DHT22;46902;52.920;6.536;2023-05-10T04:23:16;12.90;99.90
61016;DHT22;46902;52.920;6.536;2023-05-10T04:25:42;13.00;99.90
61016;DHT22;46902;52.920;6.536;2023-05-10T04:28:08;12.90;99.90
61016;DHT22;46902;52.920;6.536;2023-05-10T04:30:34;12.90;99.90
61016;DHT22;46902;52.920;6.536;2023-05-10T04:33:00;13.00;99.90
61016;DHT22;46902;52.920;6.536;2023-05-10T04:35:27;13.00;99.90
61016;DHT22;46902;52.920;6.536;2023-05-10T04:37:53;12.90;99.90
61016;DHT22;46902;52.920;6.536;2023-05-10T04:40:19;12.90;99.90
61016;DHT22;46902;52.920;6.536;2023-05-10T04:42:45;12.90;99.90
61016;DHT22;46902;52.920;6.536;2023-05-10T04:45:11;12.90;99.90
61016;DHT22;46902;52.920;6.536;2023-05-10T04:47:37;12.80;99.90
61016;DHT22;46902;52.920;6.536;2023-05-10T04:50:03;12.90;99.90
61016;DHT22;46902;52.920;6.536;2023-05-10T04:52:29;12.90;99.90
61016;DHT22;46902;52.920;6.536;2023-05-10T04:54:54;12.90;99.90
61016;DHT22;46902;52.920;6.536;2023-05-10T04:57:20;12.90;99.90
61016;DHT22;46902;52.920;6.536;2023-05-10T04:59:46;12.80;99.90
61016;DHT22;46902;52.920;6.536;2023-05-10T05:02:12;12.90;99.90
61016;DHT22;46902;52.920;6.536;2023-05-10T05:04:37;12.80;99.90
61016;DHT22;46902;52.920;6.536;2023-05-10T05:07:03;12.90;99.90
61016;DHT22;46902;52.920;6.536;2023-05-10T05:09:28;12.90;99.90
61016;DHT22;46902;52.920;6.536;2023-05-10T05:11:55;13.00;99.90
61016;DHT22;46902;52.920;6.536;2023-05-10T05:14:20;12.80;99.90
61016;DHT22;46902;52.920;6.536;2023-05-10T05:16:46;13.00;99.90
61016;DHT22;46902;52.920;6.536;2023-05-10T05:19:12;13.00;99.90
61016;DHT22;46902;52.920;6.536;2023-05-10T05:21:37;12.90;99.90
61016;DHT22;46902;52.920;6.536;2023-05-10T05:24:03;12.90;99.90
61016;DHT22;46902;52.920;6.536;2023-05-10T05:26:29;13.00;99.90
61016;DHT22;46902;52.920;6.536;2023-05-10T05:28:55;13.00;99.90
61016;DHT22;46902;52.920;6.536;2023-05-10T05:31:21;13.00;99.90
61016;DHT22;46902;52.920;6.536;2023-05-10T05:33:46;12.90;99.90
61016;DHT22;46902;52.920;6.536;2023-05-10T05:36:12;13.00;99.90
61016;DHT22;46902;52.920;6.536;2023-05-10T05:38:37;13.00;99.90
61016;DHT22;46902;52.920;6.536;2023-05-10T05:41:03;13.00;99.90
61016;DHT22;46902;52.920;6.536;2023-05-10T05:43:29;13.00;99.90
61016;DHT22;46902;52.920;6.536;2023-05-10T05:45:55;13.00;99.90
61016;DHT22;46902;52.920;6.536;2023-05-10T05:48:23;13.10;99.90
61016;DHT22;46902;52.920;6.536;2023-05-10T05:50:49;13.10;99.90
61016;DHT22;46902;52.920;6.536;2023-05-10T05:53:14;13.10;99.90
61016;DHT22;46902;52.920;6.536;2023-05-10T05:55:50;13.00;99.90
61016;DHT22;46902;52.920;6.536;2023-05-10T05:58:16;13.00;99.90
61016;DHT22;46902;52.920;6.536;2023-05-10T06:00:41;13.10;99.90
61016;DHT22;46902;52.920;6.536;2023-05-10T06:03:07;13.00;99.90
61016;DHT22;46902;52.920;6.536;2023-05-10T06:05:32;13.00;99.90
61016;DHT22;46902;52.920;6.536;2023-05-10T06:07:59;13.10;99.90
61016;DHT22;46902;52.920;6.536;2023-05-10T06:10:26;13.10;99.90
61016;DHT22;46902;52.920;6.536;2023-05-10T06:12:51;13.10;99.90
61016;DHT22;46902;52.920;6.536;2023-05-10T06:15:18;13.20;99.90
61016;DHT22;46902;52.920;6.536;2023-05-10T06:17:44;13.10;99.90
61016;DHT22;46902;52.920;6.536;2023-05-10T06:20:10;13.10;99.90
61016;DHT22;46902;52.920;6.536;2023-05-10T06:22:36;13.20;99.90
61016;DHT22;46902;52.920;6.536;2023-05-10T06:25:01;13.10;99.90
61016;DHT22;46902;52.920;6.536;2023-05-10T06:27:27;13.10;99.90
61016;DHT22;46902;52.920;6.536;2023-05-10T06:29:53;13.10;99.90
61016;DHT22;46902;52.920;6.536;2023-05-10T06:32:19;13.20;99.90
61016;DHT22;46902;52.920;6.536;2023-05-10T06:34:44;13.20;99.90
61016;DHT22;46902;52.920;6.536;2023-05-10T06:37:10;13.20;99.90
61016;DHT22;46902;52.920;6.536;2023-05-10T06:39:36;13.30;99.90
61016;DHT22;46902;52.920;6.536;2023-05-10T06:42:02;13.30;99.90
61016;DHT22;46902;52.920;6.536;2023-05-10T06:44:29;13.20;99.90
61016;DHT22;46902;52.920;6.536;2023-05-10T06:46:55;13.30;99.90
61016;DHT22;46902;52.920;6.536;2023-05-10T06:49:21;13.20;99.90
61016;DHT22;46902;52.920;6.536;2023-05-10T06:51:47;13.20;99.90
61016;DHT22;46902;52.920;6.536;2023-05-10T06:54:12;13.30;99.90
61016;DHT22;46902;52.920;6.536;2023-05-10T06:56:38;13.30;99.90
61016;DHT22;46902;52.920;6.536;2023-05-10T06:59:03;13.40;99.90
61016;DHT22;46902;52.920;6.536;2023-05-10T07:01:29;13.40;99.90
61016;DHT22;46902;52.920;6.536;2023-05-10T07:03:54;13.40;99.90
61016;DHT22;46902;52.920;6.536;2023-05-10T07:06:20;13.40;99.90
61016;DHT22;46902;52.920;6.536;2023-05-10T07:08:46;13.30;99.90
61016;DHT22;46902;52.920;6.536;2023-05-10T07:11:11;13.40;99.90
61016;DHT22;46902;52.920;6.536;2023-05-10T07:13:37;13.40;99.90
61016;DHT22;46902;52.920;6.536;2023-05-10T07:16:04;13.40;99.90
61016;DHT22;46902;52.920;6.536;2023-05-10T07:18:31;13.40;99.90
61016;DHT22;46902;52.920;6.536;2023-05-10T07:20:57;13.40;99.90
61016;DHT22;46902;52.920;6.536;2023-05-10T07:23:23;13.40;99.90
61016;DHT22;46902;52.920;6.536;2023-05-10T07:25:50;13.50;99.90
61016;DHT22;46902;52.920;6.536;2023-05-10T07:28:17;13.60;99.90
61016;DHT22;46902;52.920;6.536;2023-05-10T07:30:43;13.50;99.90
61016;DHT22;46902;52.920;6.536;2023-05-10T07:33:10;13.60;99.90
61016;DHT22;46902;52.920;6.536;2023-05-10T07:35:37;13.60;99.90
61016;DHT22;46902;52.920;6.536;2023-05-10T07:38:02;13.50;99.90
61016;DHT22;46902;52.920;6.536;2023-05-10T07:40:28;13.50;99.90
61016;DHT22;46902;52.920;6.536;2023-05-10T07:42:54;13.60;99.90
61016;DHT22;46902;52.920;6.536;2023-05-10T07:45:19;13.50;99.90
61016;DHT22;46902;52.920;6.536;2023-05-10T07:47:45;13.50;99.90
61016;DHT22;46902;52.920;6.536;2023-05-10T07:50:11;13.50;99.90
61016;DHT22;46902;52.920;6.536;2023-05-10T07:52:36;13.50;99.90
61016;DHT22;46902;52.920;6.536;2023-05-10T07:55:02;13.60;99.90
61016;DHT22;46902;52.920;6.536;2023-05-10T07:57:28;13.50;99.90
61016;DHT22;46902;52.920;6.536;2023-05-10T07:59:54;13.60;99.90
61016;DHT22;46902;52.920;6.536;2023-05-10T08:02:19;13.50;99.90
61016;DHT22;46902;52.920;6.536;2023-05-10T08:04:45;13.50;99.90
61016;DHT22;46902;52.920;6.536;2023-05-10T08:07:10;13.50;99.90
61016;DHT22;46902;52.920;6.536;2023-05-10T08:09:36;13.50;99.90
61016;DHT22;46902;52.920;6.536;2023-05-10T08:12:02;13.50;99.90
61016;DHT22;46902;52.920;6.536;2023-05-10T08:14:29;13.60;99.90
61016;DHT22;46902;52.920;6.536;2023-05-10T08:16:55;13.60;99.90
61016;DHT22;46902;52.920;6.536;2023-05-10T08:19:20;13.70;99.90
61016;DHT22;46902;52.920;6.536;2023-05-10T08:21:47;13.60;99.90
61016;DHT22;46902;52.920;6.536;2023-05-10T08:24:13;13.70;99.90
61016;DHT22;46902;52.920;6.536;2023-05-10T08:26:38;13.80;99.90
61016;DHT22;46902;52.920;6.536;2023-05-10T08:29:04;14.00;99.90
61016;DHT22;46902;52.920;6.536;2023-05-10T08:31:30;14.10;99.90
61016;DHT22;46902;52.920;6.536;2023-05-10T08:33:55;14.10;99.90
61016;DHT22;46902;52.920;6.536;2023-05-10T08:36:21;14.00;99.90
61016;DHT22;46902;52.920;6.536;2023-05-10T08:38:50;14.00;99.90
61016;DHT22;46902;52.920;6.536;2023-05-10T08:41:19;14.00;99.90
61016;DHT22;46902;52.920;6.536;2023-05-10T08:43:46;14.00;99.90
61016;DHT22;46902;52.920;6.536;2023-05-10T08:46:16;14.10;99.90
61016;DHT22;46902;52.920;6.536;2023-05-10T08:48:44;14.00;99.90
61016;DHT22;46902;52.920;6.536;2023-05-10T08:51:13;14.20;99.90
61016;DHT22;46902;52.920;6.536;2023-05-10T08:53:39;14.20;99.90
61016;DHT22;46902;52.920;6.536;2023-05-10T08:56:05;14.30;99.90
61016;DHT22;46902;52.920;6.536;2023-05-10T08:58:31;14.30;99.90
61016;DHT22;46902;52.920;6.536;2023-05-10T09:01:04;14.30;99.90
61016;DHT22;46902;52.920;6.536;2023-05-10T09:03:31;14.40;99.90
61016;DHT22;46902;52.920;6.536;2023-05-10T09:05:57;14.50;99.90
61016;DHT22;46902;52.920;6.536;2023-05-10T09:08:26;14.50;99.90
61016;DHT22;46902;52.920;6.536;2023-05-10T09:10:53;14.60;99.90
61016;DHT22;46902;52.920;6.536;2023-05-10T09:13:19;14.60;99.90
61016;DHT22;46902;52.920;6.536;2023-05-10T09:15:45;14.60;99.90
61016;DHT22;46902;52.920;6.536;2023-05-10T09:18:12;14.60;99.90
61016;DHT22;46902;52.920;6.536;2023-05-10T09:20:37;14.70;99.90
61016;DHT22;46902;52.920;6.536;2023-05-10T09:23:03;14.70;99.90
61016;DHT22;46902;52.920;6.536;2023-05-10T09:25:28;14.80;99.90
61016;DHT22;46902;52.920;6.536;2023-05-10T09:27:55;14.80;99.90
61016;DHT22;46902;52.920;6.536;2023-05-10T09:30:25;14.90;99.90
61016;DHT22;46902;52.920;6.536;2023-05-10T09:32:52;15.00;99.90
61016;DHT22;46902;52.920;6.536;2023-05-10T09:35:20;14.80;99.90
61016;DHT22;46902;52.920;6.536;2023-05-10T09:37:48;14.80;99.90
61016;DHT22;46902;52.920;6.536;2023-05-10T09:40:16;14.90;99.90
61016;DHT22;46902;52.920;6.536;2023-05-10T09:42:53;14.80;99.90
61016;DHT22;46902;52.920;6.536;2023-05-10T09:45:20;15.00;99.90
61016;DHT22;46902;52.920;6.536;2023-05-10T09:47:46;15.10;99.90
61016;DHT22;46902;52.920;6.536;2023-05-10T09:50:11;15.10;99.90
61016;DHT22;46902;52.920;6.536;2023-05-10T09:52:58;15.20;99.90
61016;DHT22;46902;52.920;6.536;2023-05-10T09:55:26;15.20;99.90
61016;DHT22;46902;52.920;6.536;2023-05-10T09:57:59;15.20;99.90
61016;DHT22;46902;52.920;6.536;2023-05-10T10:00:26;15.30;99.90
61016;DHT22;46902;52.920;6.536;2023-05-10T10:02:57;15.20;99.90
61016;DHT22;46902;52.920;6.536;2023-05-10T10:05:33;15.30;99.90
61016;DHT22;46902;52.920;6.536;2023-05-10T10:08:03;15.30;99.90
61016;DHT22;46902;52.920;6.536;2023-05-10T10:10:31;15.40;99.90
61016;DHT22;46902;52.920;6.536;2023-05-10T10:12:56;15.70;99.90
61016;DHT22;46902;52.920;6.536;2023-05-10T10:15:23;15.70;99.90
61016;DHT22;46902;52.920;6.536;2023-05-10T10:17:50;15.80;99.90
61016;DHT22;46902;52.920;6.536;2023-05-10T10:20:17;15.80;99.90
61016;DHT22;46902;52.920;6.536;2023-05-10T10:22:43;16.00;99.90
61016;DHT22;46902;52.920;6.536;2023-05-10T10:25:12;16.00;99.90
61016;DHT22;46902;52.920;6.536;2023-05-10T10:30:35;16.10;99.90
61016;DHT22;46902;52.920;6.536;2023-05-10T10:33:46;16.10;99.90
61016;DHT22;46902;52.920;6.536;2023-05-10T10:36:16;16.00;99.90
61016;DHT22;46902;52.920;6.536;2023-05-10T10:50:03;15.90;99.90
61016;DHT22;46902;52.920;6.536;2023-05-10T10:52:34;15.90;99.90
61016;DHT22;46902;52.920;6.536;2023-05-10T10:55:10;16.00;99.90
61016;DHT22;46902;52.920;6.536;2023-05-10T10:57:54;15.90;99.90
61016;DHT22;46902;52.920;6.536;2023-05-10T11:00:33;16.00;99.90
61016;DHT22;46902;52.920;6.536;2023-05-10T11:03:10;15.90;99.90
61016;DHT22;46902;52.920;6.536;2023-05-10T11:10:48;16.10;99.90
61016;DHT22;46902;52.920;6.536;2023-05-10T11:13:14;16.20;99.90
61016;DHT22;46902;52.920;6.536;2023-05-10T11:15:48;16.20;99.90
61016;DHT22;46902;52.920;6.536;2023-05-10T11:21:00;16.20;99.90
61016;DHT22;46902;52.920;6.536;2023-05-10T11:26:08;16.10;99.90
61016;DHT22;46902;52.920;6.536;2023-05-10T11:28:40;16.10;99.90
61016;DHT22;46902;52.920;6.536;2023-05-10T11:31:06;16.10;99.90
61016;DHT22;46902;52.920;6.536;2023-05-10T11:36:18;16.10;99.90
61016;DHT22;46902;52.920;6.536;2023-05-10T11:38:45;16.10;99.90
61016;DHT22;46902;52.920;6.536;2023-05-10T11:41:12;16.10;99.90
61016;DHT22;46902;52.920;6.536;2023-05-10T11:43:41;16.00;99.90
61016;DHT22;46902;52.920;6.536;2023-05-10T11:46:12;16.10;99.90
61016;DHT22;46902;52.920;6.536;2023-05-10T11:48:41;16.20;99.90
61016;DHT22;46902;52.920;6.536;2023-05-10T11:51:08;16.20;99.90
61016;DHT22;46902;52.920;6.536;2023-05-10T11:53:34;16.30;99.90
61016;DHT22;46902;52.920;6.536;2023-05-10T11:58:30;16.40;99.90
61016;DHT22;46902;52.920;6.536;2023-05-10T12:00:56;16.40;99.90
61016;DHT22;46902;52.920;6.536;2023-05-10T12:03:22;16.40;99.90
61016;DHT22;46902;52.920;6.536;2023-05-10T12:05:48;16.40;99.90
61016;DHT22;46902;52.920;6.536;2023-05-10T12:08:15;16.30;99.90
61016;DHT22;46902;52.920;6.536;2023-05-10T12:10:41;16.30;99.90
61016;DHT22;46902;52.920;6.536;2023-05-10T12:13:14;16.20;99.90
61016;DHT22;46902;52.920;6.536;2023-05-10T12:15:41;16.10;99.90
61016;DHT22;46902;52.920;6.536;2023-05-10T12:18:11;16.00;99.90
61016;DHT22;46902;52.920;6.536;2023-05-10T12:20:38;16.00;99.90
61016;DHT22;46902;52.920;6.536;2023-05-10T12:23:04;15.90;99.90
61016;DHT22;46902;52.920;6.536;2023-05-10T12:25:35;15.90;99.90
61016;DHT22;46902;52.920;6.536;2023-05-10T12:28:06;15.90;99.90
61016;DHT22;46902;52.920;6.536;2023-05-10T12:30:33;15.90;99.90
61016;DHT22;46902;52.920;6.536;2023-05-10T12:33:10;15.80;99.90
61016;DHT22;46902;52.920;6.536;2023-05-10T12:35:51;15.90;99.90
61016;DHT22;46902;52.920;6.536;2023-05-10T12:38:31;15.90;99.90
61016;DHT22;46902;52.920;6.536;2023-05-10T12:41:02;15.80;99.90
61016;DHT22;46902;52.920;6.536;2023-05-10T12:43:28;15.80;99.90
61016;DHT22;46902;52.920;6.536;2023-05-10T12:45:54;15.80;99.90
61016;DHT22;46902;52.920;6.536;2023-05-10T12:48:20;15.60;99.90
61016;DHT22;46902;52.920;6.536;2023-05-10T12:50:46;15.60;99.90
61016;DHT22;46902;52.920;6.536;2023-05-10T12:53:13;15.60;99.90
61016;DHT22;46902;52.920;6.536;2023-05-10T12:55:41;15.60;99.90
61016;DHT22;46902;52.920;6.536;2023-05-10T12:58:06;15.50;99.90
61016;DHT22;46902;52.920;6.536;2023-05-10T13:00:32;15.50;99.90
61016;DHT22;46902;52.920;6.536;2023-05-10T13:02:58;15.50;99.90
61016;DHT22;46902;52.920;6.536;2023-05-10T13:05:24;15.50;99.90
61016;DHT22;46902;52.920;6.536;2023-05-10T13:07:49;15.50;99.90
61016;DHT22;46902;52.920;6.536;2023-05-10T13:10:16;15.60;99.90
61016;DHT22;46902;52.920;6.536;2023-05-10T13:12:41;15.60;99.90
61016;DHT22;46902;52.920;6.536;2023-05-10T13:15:07;15.60;99.90
61016;DHT22;46902;52.920;6.536;2023-05-10T13:17:33;15.60;99.90
61016;DHT22;46902;52.920;6.536;2023-05-10T13:19:59;15.70;99.90
61016;DHT22;46902;52.920;6.536;2023-05-10T13:22:25;15.70;99.90
61016;DHT22;46902;52.920;6.536;2023-05-10T13:24:50;15.80;99.90
61016;DHT22;46902;52.920;6.536;2023-05-10T13:27:16;15.80;99.90
61016;DHT22;46902;52.920;6.536;2023-05-10T13:29:41;15.80;99.90
61016;DHT22;46902;52.920;6.536;2023-05-10T13:32:07;15.90;99.90
61016;DHT22;46902;52.920;6.536;2023-05-10T13:34:33;15.90;99.90
61016;DHT22;46902;52.920;6.536;2023-05-10T13:36:58;15.90;99.90
61016;DHT22;46902;52.920;6.536;2023-05-10T13:39:24;16.00;99.90
61016;DHT22;46902;52.920;6.536;2023-05-10T13:41:49;16.00;99.90
61016;DHT22;46902;52.920;6.536;2023-05-10T13:44:15;16.00;99.90
61016;DHT22;46902;52.920;6.536;2023-05-10T13:46:41;16.10;99.90
61016;DHT22;46902;52.920;6.536;2023-05-10T13:49:10;16.10;99.90
61016;DHT22;46902;52.920;6.536;2023-05-10T13:51:36;16.20;99.90
61016;DHT22;46902;52.920;6.536;2023-05-10T13:54:04;16.20;99.90
61016;DHT22;46902;52.920;6.536;2023-05-10T13:56:30;16.20;99.90
61016;DHT22;46902;52.920;6.536;2023-05-10T13:58:59;16.30;99.90
61016;DHT22;46902;52.920;6.536;2023-05-10T14:01:24;16.30;99.90
61016;DHT22;46902;52.920;6.536;2023-05-10T14:03:50;16.30;99.90
61016;DHT22;46902;52.920;6.536;2023-05-10T14:06:16;16.20;99.90
61016;DHT22;46902;52.920;6.536;2023-05-10T14:08:41;16.20;99.90
61016;DHT22;46902;52.920;6.536;2023-05-10T14:11:07;16.20;99.90
61016;DHT22;46902;52.920;6.536;2023-05-10T14:13:33;16.20;99.90
61016;DHT22;46902;52.920;6.536;2023-05-10T14:15:59;16.20;99.90
61016;DHT22;46902;52.920;6.536;2023-05-10T14:18:27;16.30;99.90
61016;DHT22;46902;52.920;6.536;2023-05-10T14:20:53;16.20;99.90
61016;DHT22;46902;52.920;6.536;2023-05-10T14:23:19;16.20;99.90
61016;DHT22;46902;52.920;6.536;2023-05-10T14:25:49;16.20;99.90
61016;DHT22;46902;52.920;6.536;2023-05-10T14:28:16;16.30;99.90
61016;DHT22;46902;52.920;6.536;2023-05-10T14:30:42;16.20;99.90
61016;DHT22;46902;52.920;6.536;2023-05-10T14:33:08;16.20;99.90
61016;DHT22;46902;52.920;6.536;2023-05-10T14:35:34;16.20;99.90
61016;DHT22;46902;52.920;6.536;2023-05-10T14:38:00;16.20;99.90
61016;DHT22;46902;52.920;6.536;2023-05-10T14:40:25;16.20;99.90
61016;DHT22;46902;52.920;6.536;2023-05-10T14:42:51;16.10;99.90
61016;DHT22;46902;52.920;6.536;2023-05-10T14:45:18;16.10;99.90
61016;DHT22;46902;52.920;6.536;2023-05-10T14:47:44;16.10;99.90
61016;DHT22;46902;52.920;6.536;2023-05-10T14:50:09;16.20;99.90
61016;DHT22;46902;52.920;6.536;2023-05-10T14:52:35;16.20;99.90
61016;DHT22;46902;52.920;6.536;2023-05-10T14:55:01;16.30;99.90
61016;DHT22;46902;52.920;6.536;2023-05-10T14:57:27;16.30;99.90
61016;DHT22;46902;52.920;6.536;2023-05-10T14:59:55;16.40;99.90
61016;DHT22;46902;52.920;6.536;2023-05-10T15:02:21;16.40;99.90
61016;DHT22;46902;52.920;6.536;2023-05-10T15:04:47;16.50;99.90
61016;DHT22;46902;52.920;6.536;2023-05-10T15:07:13;16.40;99.90
61016;DHT22;46902;52.920;6.536;2023-05-10T15:09:40;16.50;99.90
61016;DHT22;46902;52.920;6.536;2023-05-10T15:12:06;16.50;99.90
61016;DHT22;46902;52.920;6.536;2023-05-10T15:14:32;16.50;99.90
61016;DHT22;46902;52.920;6.536;2023-05-10T15:16:58;16.50;99.90
61016;DHT22;46902;52.920;6.536;2023-05-10T15:19:24;16.50;99.90
61016;DHT22;46902;52.920;6.536;2023-05-10T15:21:50;16.50;99.90
61016;DHT22;46902;52.920;6.536;2023-05-10T15:24:15;16.50;99.90
61016;DHT22;46902;52.920;6.536;2023-05-10T15:26:41;16.50;99.90
61016;DHT22;46902;52.920;6.536;2023-05-10T15:29:07;16.50;99.90
61016;DHT22;46902;52.920;6.536;2023-05-10T15:31:33;16.50;99.90
61016;DHT22;46902;52.920;6.536;2023-05-10T15:34:01;16.50;99.90
61016;DHT22;46902;52.920;6.536;2023-05-10T15:36:27;16.50;99.90
61016;DHT22;46902;52.920;6.536;2023-05-10T15:38:55;16.50;99.90
61016;DHT22;46902;52.920;6.536;2023-05-10T15:41:21;16.50;99.90
61016;DHT22;46902;52.920;6.536;2023-05-10T15:43:47;16.60;99.90
61016;DHT22;46902;52.920;6.536;2023-05-10T15:46:12;16.60;99.90
61016;DHT22;46902;52.920;6.536;2023-05-10T15:48:38;16.60;99.90
61016;DHT22;46902;52.920;6.536;2023-05-10T15:51:04;16.60;99.90
61016;DHT22;46902;52.920;6.536;2023-05-10T15:53:30;16.70;99.90
61016;DHT22;46902;52.920;6.536;2023-05-10T15:55:56;16.70;99.90
61016;DHT22;46902;52.920;6.536;2023-05-10T15:58:21;16.70;99.90
61016;DHT22;46902;52.920;6.536;2023-05-10T16:00:47;16.70;99.90
61016;DHT22;46902;52.920;6.536;2023-05-10T16:03:13;16.70;99.90
61016;DHT22;46902;52.920;6.536;2023-05-10T16:05:38;16.70;99.90
61016;DHT22;46902;52.920;6.536;2023-05-10T16:08:04;16.80;99.90
61016;DHT22;46902;52.920;6.536;2023-05-10T16:10:33;16.80;99.90
61016;DHT22;46902;52.920;6.536;2023-05-10T16:12:58;16.70;99.90
61016;DHT22;46902;52.920;6.536;2023-05-10T16:15:24;16.60;99.90
61016;DHT22;46902;52.920;6.536;2023-05-10T16:17:50;16.60;99.90
61016;DHT22;46902;52.920;6.536;2023-05-10T16:20:16;16.50;99.90
61016;DHT22;46902;52.920;6.536;2023-05-10T16:22:42;16.50;99.90